Time;durP1;ratioP1;P1;durP2;ratioP2;P2;SDS_P1;SDS_P2;PMS_P1;PMS_P2;Temp;Humidity;BMP_temperature;BMP_pressure;BME280_temperature;BME280_humidity;BME280_pressure;Samples;Min_cycle;Max_cycle;Signal;HPM_P1;HPM_P2
2021/12/18 00:01:06;;;;;;;6.78;2.63;;;22.40;52.50;;;;;;5192341;28;20049;-63
2021/12/18 00:03:38;;;;;;;4.70;2.83;;;22.40;52.50;;;;;;5180537;28;20048;-62
2021/12/18 00:06:11;;;;;;;5.15;3.10;;;22.40;53.10;;;;;;5195891;28;20040;-63
2021/12/18 00:08:44;;;;;;;4.67;2.60;;;22.40;52.40;;;;;;5178395;28;20047;-62
2021/12/18 00:11:17;;;;;;;4.38;2.70;;;22.40;52.50;;;;;;5194494;28;20637;-61
2021/12/18 00:13:49;;;;;;;4.45;2.70;;;22.40;52.50;;;;;;5183509;28;20049;-64
2021/12/18 00:16:22;;;;;;;7.90;3.03;;;22.40;52.60;;;;;;5179737;28;20064;-66
2021/12/18 00:18:57;;;;;;;3.88;2.65;;;22.40;52.70;;;;;;5183318;28;20071;-64
2021/12/18 00:21:30;;;;;;;4.18;2.67;;;22.40;52.70;;;;;;5175566;28;20052;-63
2021/12/18 00:24:08;;;;;;;6.68;3.13;;;22.40;52.70;;;;;;5165195;28;20056;-62
2021/12/18 00:26:40;;;;;;;5.57;2.80;;;22.40;52.50;;;;;;5205448;28;20399;-61
2021/12/18 00:29:13;;;;;;;6.35;3.03;;;22.40;52.50;;;;;;5190557;28;20554;-62
2021/12/18 00:31:46;;;;;;;4.22;2.50;;;22.40;52.50;;;;;;5197691;28;20578;-62
2021/12/18 00:34:19;;;;;;;4.40;2.88;;;22.40;52.50;;;;;;5203072;28;20048;-62
2021/12/18 00:36:52;;;;;;;4.38;2.92;;;22.30;52.50;;;;;;5194689;28;20040;-63
2021/12/18 00:39:24;;;;;;;4.85;2.80;;;22.30;52.50;;;;;;5184202;28;20044;-64
2021/12/18 00:42:07;;;;;;;4.20;2.40;;;22.30;52.50;;;;;;5203131;28;20040;-62
2021/12/18 00:44:40;;;;;;;4.95;2.83;;;22.40;52.50;;;;;;5195545;28;20053;-61
2021/12/18 00:47:12;;;;;;;5.43;2.45;;;22.30;52.50;;;;;;5191892;28;20044;-64
2021/12/18 00:49:44;;;;;;;4.00;2.73;;;22.30;52.50;;;;;;5192420;28;20045;-60
2021/12/18 00:52:17;;;;;;;3.88;2.50;;;22.30;52.50;;;;;;5189461;28;20063;-63
2021/12/18 00:54:50;;;;;;;8.32;2.85;;;22.30;52.40;;;;;;5179106;28;20045;-64
2021/12/18 00:57:23;;;;;;;4.65;2.80;;;22.40;52.60;;;;;;5190174;28;20806;-64
2021/12/18 01:00:00;;;;;;;2.63;2.38;;;22.30;52.40;;;;;;5193962;28;20040;-63
2021/12/18 01:02:32;;;;;;;5.30;2.90;;;22.30;52.50;;;;;;5184944;28;20048;-64
2021/12/18 01:05:07;;;;;;;7.13;2.60;;;22.30;52.50;;;;;;5193959;28;20053;-63
2021/12/18 01:07:39;;;;;;;6.03;2.90;;;22.30;52.50;;;;;;5180724;28;20716;-63
2021/12/18 01:12:53;;;;;;;7.65;2.55;;;22.30;52.70;;;;;;5199654;28;20960;-63
2021/12/18 01:15:31;;;;;;;10.70;3.55;;;22.30;52.70;;;;;;5183834;28;20576;-63
2021/12/18 01:23:46;;;;;;;6.40;2.88;;;22.30;52.70;;;;;;5177313;28;20102;-63
2021/12/18 01:26:18;;;;;;;4.03;3.08;;;22.30;52.70;;;;;;5191596;28;20041;-63
2021/12/18 01:28:51;;;;;;;9.80;3.50;;;22.30;52.70;;;;;;5185972;28;20052;-63
2021/12/18 01:31:23;;;;;;;6.07;3.50;;;22.30;52.70;;;;;;5194292;28;20059;-63
2021/12/18 01:33:55;;;;;;;8.88;3.67;;;22.30;52.60;;;;;;5192990;28;20060;-64
2021/12/18 01:36:29;;;;;;;5.88;3.17;;;22.30;52.70;;;;;;5190893;28;20044;-64
2021/12/18 01:39:03;;;;;;;4.93;3.08;;;22.30;52.70;;;;;;5199990;28;20411;-64
2021/12/18 01:41:55;;;;;;;6.38;3.00;;;22.30;52.70;;;;;;5193103;28;20056;-64
2021/12/18 01:52:53;;;;;;;5.90;3.13;;;22.30;52.70;;;;;;5202879;28;20648;-63
2021/12/18 01:55:32;;;;;;;3.50;2.78;;;22.30;52.70;;;;;;5191696;28;20048;-64
2021/12/18 01:58:06;;;;;;;4.40;2.85;;;22.30;52.60;;;;;;5184418;28;20055;-63
2021/12/18 02:00:41;;;;;;;5.53;3.08;;;22.20;52.50;;;;;;5184012;28;20043;-63
2021/12/18 02:03:14;;;;;;;4.00;2.88;;;22.20;52.50;;;;;;5188471;28;20890;-63
2021/12/18 02:05:51;;;;;;;3.78;2.88;;;22.30;53.20;;;;;;5182674;28;20052;-63
2021/12/18 02:08:26;;;;;;;5.30;3.00;;;22.30;52.60;;;;;;5174791;28;20052;-64
2021/12/18 02:11:09;;;;;;;4.38;3.50;;;22.20;52.50;;;;;;5175294;28;21383;-63
2021/12/18 02:19:50;;;;;;;7.00;3.28;;;22.20;52.50;;;;;;5185021;28;20052;-63
2021/12/18 02:22:24;;;;;;;6.13;2.83;;;22.20;52.50;;;;;;5186547;28;20632;-63
2021/12/18 02:24:57;;;;;;;5.38;2.88;;;22.20;52.50;;;;;;5182397;28;20045;-64
2021/12/18 02:27:30;;;;;;;17.80;2.97;;;22.20;52.50;;;;;;5204319;28;20693;-63
2021/12/18 02:30:04;;;;;;;9.40;4.00;;;22.20;52.50;;;;;;5207103;28;20056;-63
2021/12/18 02:32:36;;;;;;;6.38;2.67;;;22.20;52.40;;;;;;5198458;28;20041;-63
2021/12/18 02:35:10;;;;;;;5.68;3.35;;;22.20;52.50;;;;;;5186170;28;20428;-63
2021/12/18 02:37:44;;;;;;;;;;;22.20;52.40;;;;;;5196855;28;20045;-63
2021/12/18 02:43:23;;;;;;;4.07;3.15;;;22.20;52.40;;;;;;5183657;28;20055;-63
2021/12/18 02:45:59;;;;;;;4.75;3.38;;;22.20;52.50;;;;;;5188741;28;20368;-63
2021/12/18 02:48:32;;;;;;;5.13;3.10;;;22.20;52.50;;;;;;5201656;28;20640;-63
2021/12/18 02:51:06;;;;;;;6.13;3.08;;;22.20;52.40;;;;;;5198452;28;21329;-62
2021/12/18 02:53:43;;;;;;;4.15;3.03;;;22.20;52.40;;;;;;5203402;28;20045;-63
2021/12/18 02:56:19;;;;;;;5.15;3.22;;;22.20;52.40;;;;;;5206658;28;20060;-62
2021/12/18 02:58:58;;;;;;;6.10;3.03;;;22.20;52.40;;;;;;5208337;28;20711;-63
2021/12/18 03:01:32;;;;;;;5.00;3.25;;;22.20;52.40;;;;;;5201349;28;20047;-63
2021/12/18 03:06:53;;;;;;;4.82;2.85;;;22.20;52.50;;;;;;5203063;28;20800;-62
2021/12/18 03:25:54;;;;;;;5.70;2.83;;;22.20;52.30;;;;;;5167872;28;20078;-62
2021/12/18 03:28:28;;;;;;;3.63;2.67;;;22.20;52.30;;;;;;5202395;28;20059;-63
2021/12/18 03:31:01;;;;;;;6.13;2.70;;;22.20;52.20;;;;;;5199859;28;20059;-62
2021/12/18 03:33:33;;;;;;;4.90;3.10;;;22.20;52.20;;;;;;5205455;28;20056;-62
2021/12/18 03:36:07;;;;;;;4.85;3.03;;;22.20;52.20;;;;;;5195147;28;20044;-63
2021/12/18 03:38:39;;;;;;;4.15;3.05;;;22.10;52.20;;;;;;5199206;28;20049;-63
2021/12/18 03:41:11;;;;;;;3.95;2.95;;;22.20;52.10;;;;;;5177567;28;20044;-62
2021/12/18 03:43:44;;;;;;;3.80;3.17;;;22.10;52.10;;;;;;5201919;28;20700;-63
2021/12/18 03:46:16;;;;;;;5.55;3.00;;;22.20;52.20;;;;;;5200812;28;20045;-63
2021/12/18 03:48:48;;;;;;;3.63;3.05;;;22.20;52.10;;;;;;5199679;28;20801;-62
2021/12/18 03:51:21;;;;;;;3.95;3.50;;;22.20;52.10;;;;;;5187420;28;20908;-62
2021/12/18 03:53:53;;;;;;;5.45;3.10;;;22.10;52.00;;;;;;5184326;28;20051;-61
2021/12/18 03:56:26;;;;;;;3.95;3.22;;;22.20;52.10;;;;;;5174062;28;20509;-62
2021/12/18 03:58:59;;;;;;;4.13;2.85;;;22.20;52.10;;;;;;5185995;28;20692;-62
2021/12/18 04:01:32;;;;;;;4.57;3.17;;;22.10;52.00;;;;;;5191146;28;20400;-62
2021/12/18 04:04:04;;;;;;;5.22;2.95;;;22.10;51.90;;;;;;5214193;28;20509;-63
2021/12/18 04:06:38;;;;;;;7.37;3.23;;;22.20;52.00;;;;;;5199276;28;20044;-62
2021/12/18 04:09:11;;;;;;;4.03;3.17;;;22.10;52.00;;;;;;5199328;28;20059;-63
2021/12/18 04:11:44;;;;;;;4.45;2.92;;;22.10;52.10;;;;;;5187952;28;20782;-62
2021/12/18 04:14:17;;;;;;;4.10;2.73;;;22.10;52.00;;;;;;5194488;28;20044;-63
2021/12/18 04:16:50;;;;;;;4.18;2.90;;;22.10;52.10;;;;;;5219982;28;20049;-62
2021/12/18 04:19:22;;;;;;;3.83;2.78;;;22.10;52.10;;;;;;5207741;28;20123;-62
2021/12/18 04:21:55;;;;;;;5.68;3.63;;;22.10;52.10;;;;;;5191315;28;21332;-62
2021/12/18 04:24:27;;;;;;;5.40;3.22;;;22.20;52.10;;;;;;5192916;28;20099;-63
2021/12/18 04:27:00;;;;;;;5.97;3.30;;;22.10;52.10;;;;;;5179820;28;20141;-62
2021/12/18 04:29:32;;;;;;;6.18;2.78;;;22.10;52.10;;;;;;5211193;28;20514;-62
2021/12/18 04:32:04;;;;;;;5.13;3.40;;;22.10;52.10;;;;;;5214028;28;20057;-63
2021/12/18 04:34:37;;;;;;;6.90;3.65;;;22.10;52.10;;;;;;5214503;28;20674;-62
2021/12/18 04:37:09;;;;;;;7.13;3.38;;;22.10;52.10;;;;;;5216070;28;20056;-63
2021/12/18 04:39:41;;;;;;;9.32;3.30;;;22.10;52.10;;;;;;5196317;28;20550;-63
2021/12/18 04:42:14;;;;;;;12.93;3.70;;;22.10;52.20;;;;;;5207869;28;21112;-63
2021/12/18 04:44:47;;;;;;;7.50;3.25;;;22.10;52.20;;;;;;5211091;28;21097;-63
2021/12/18 04:47:19;;;;;;;7.35;3.08;;;22.10;52.20;;;;;;5215392;28;20349;-63
2021/12/18 04:49:51;;;;;;;7.43;3.33;;;22.10;52.30;;;;;;5218680;28;20194;-63
2021/12/18 04:52:24;;;;;;;4.15;2.85;;;22.10;52.30;;;;;;5216256;28;20044;-63
2021/12/18 04:54:56;;;;;;;9.20;3.40;;;22.10;52.40;;;;;;5216724;28;20044;-63
2021/12/18 04:57:29;;;;;;;7.28;2.88;;;22.10;52.40;;;;;;5211750;28;20063;-63
2021/12/18 05:00:03;;;;;;;9.48;3.88;;;22.10;52.50;;;;;;5192874;28;20057;-63
2021/12/18 05:02:40;;;;;;;7.25;3.13;;;22.10;52.50;;;;;;5211612;28;20044;-63
2021/12/18 05:05:14;;;;;;;4.70;2.60;;;22.10;52.50;;;;;;5212011;28;20427;-62
2021/12/18 05:07:46;;;;;;;7.65;3.05;;;22.10;52.60;;;;;;5214704;28;20079;-63
2021/12/18 05:10:18;;;;;;;8.32;3.10;;;22.10;52.70;;;;;;5205175;28;20402;-63
2021/12/18 05:12:51;;;;;;;5.60;3.00;;;22.10;52.70;;;;;;5183692;28;20049;-61
2021/12/18 05:15:23;;;;;;;5.43;2.80;;;22.10;52.80;;;;;;5205629;28;20055;-63
2021/12/18 05:17:56;;;;;;;10.70;2.80;;;22.10;52.80;;;;;;5211516;28;20087;-64
2021/12/18 05:20:28;;;;;;;6.10;2.75;;;22.10;52.80;;;;;;5213739;28;20068;-63
2021/12/18 05:23:01;;;;;;;4.60;2.60;;;22.00;53.40;;;;;;5211909;28;20396;-62
2021/12/18 05:25:33;;;;;;;6.75;2.97;;;22.00;52.80;;;;;;5212253;28;20044;-63
2021/12/18 05:28:06;;;;;;;5.22;3.10;;;22.10;52.80;;;;;;5205616;28;20049;-63
2021/12/18 05:30:38;;;;;;;3.33;2.50;;;22.00;52.90;;;;;;5209737;28;20448;-63
2021/12/18 05:33:11;;;;;;;5.97;2.78;;;22.00;53.00;;;;;;5210267;28;20052;-64
2021/12/18 05:35:44;;;;;;;5.95;2.92;;;22.00;53.00;;;;;;5206791;28;20071;-62
2021/12/18 05:38:16;;;;;;;4.05;2.58;;;22.00;53.00;;;;;;5212309;28;20244;-63
2021/12/18 05:40:49;;;;;;;5.28;3.13;;;22.00;53.00;;;;;;5209803;28;20397;-64
2021/12/18 05:43:21;;;;;;;5.20;2.78;;;22.00;53.10;;;;;;5204813;28;20053;-63
2021/12/18 05:45:53;;;;;;;7.03;3.20;;;22.00;53.10;;;;;;5213777;28;20043;-62
2021/12/18 05:48:26;;;;;;;5.47;2.95;;;22.00;53.20;;;;;;5213855;28;20048;-63
2021/12/18 05:50:58;;;;;;;18.10;3.45;;;22.00;53.30;;;;;;5211170;28;20040;-63
2021/12/18 05:53:31;;;;;;;7.05;3.10;;;22.00;53.30;;;;;;5214952;28;20487;-63
2021/12/18 05:56:03;;;;;;;7.10;3.50;;;22.00;53.40;;;;;;5202515;28;20067;-63
2021/12/18 05:58:36;;;;;;;9.70;2.63;;;22.00;53.40;;;;;;5209653;28;20048;-63
2021/12/18 06:01:08;;;;;;;4.53;2.75;;;22.00;53.40;;;;;;5195383;28;20672;-63
2021/12/18 06:03:41;;;;;;;4.85;2.65;;;22.00;53.50;;;;;;5181690;28;20909;-63
2021/12/18 06:06:14;;;;;;;;;;;22.00;53.50;;;;;;5179204;28;20414;-63
2021/12/18 06:08:47;;;;;;;5.47;2.63;;;22.00;53.60;;;;;;5182662;28;20467;-63
2021/12/18 06:11:21;;;;;;;6.83;3.27;;;22.00;53.60;;;;;;5178968;28;20792;-63
2021/12/18 06:13:54;;;;;;;7.82;2.97;;;22.00;53.60;;;;;;5187729;28;20048;-63
2021/12/18 06:16:27;;;;;;;7.93;3.42;;;22.00;53.60;;;;;;5187475;28;20052;-62
2021/12/18 06:18:59;;;;;;;6.40;2.83;;;22.00;53.70;;;;;;5184870;28;20052;-62
2021/12/18 06:21:32;;;;;;;6.05;2.80;;;22.00;53.90;;;;;;5188016;28;20057;-62
2021/12/18 06:24:04;;;;;;;7.88;2.75;;;22.00;53.70;;;;;;5184057;28;20071;-63
2021/12/18 06:26:37;;;;;;;6.15;2.47;;;22.10;53.80;;;;;;5193711;28;20052;-62
2021/12/18 06:29:09;;;;;;;8.98;3.10;;;22.00;53.80;;;;;;5188408;28;20048;-63
2021/12/18 06:31:41;;;;;;;6.38;2.78;;;22.00;54.10;;;;;;5182769;28;20053;-63
2021/12/18 06:34:18;;;;;;;5.15;2.65;;;22.10;53.80;;;;;;5175219;28;20048;-63
2021/12/18 06:36:53;;;;;;;4.00;2.58;;;22.10;53.80;;;;;;5195880;28;20369;-62
2021/12/18 06:39:25;;;;;;;4.93;2.97;;;22.00;53.70;;;;;;5190255;28;20654;-63
2021/12/18 06:41:58;;;;;;;4.13;2.55;;;22.10;53.80;;;;;;5189026;28;20040;-63
2021/12/18 06:44:30;;;;;;;6.32;2.88;;;22.10;54.10;;;;;;5188121;28;20053;-63
2021/12/18 06:47:03;;;;;;;4.78;2.58;;;22.00;53.70;;;;;;5192720;28;20040;-63
2021/12/18 06:49:35;;;;;;;10.02;2.88;;;22.10;53.80;;;;;;5190214;28;20068;-63
2021/12/18 06:52:08;;;;;;;7.20;2.90;;;22.10;53.90;;;;;;5189954;28;20045;-63
2021/12/18 06:54:40;;;;;;;9.55;3.13;;;22.10;53.90;;;;;;5201432;28;20045;-63
2021/12/18 06:57:12;;;;;;;6.95;2.30;;;22.10;53.90;;;;;;5195677;28;20048;-63
2021/12/18 06:59:45;;;;;;;4.28;2.60;;;22.10;53.90;;;;;;5177232;28;20041;-63
2021/12/18 07:02:18;;;;;;;3.67;2.47;;;22.10;53.90;;;;;;5193460;28;20540;-63
2021/12/18 07:04:51;;;;;;;5.45;2.45;;;22.10;53.90;;;;;;5193871;28;20534;-63
2021/12/18 07:07:23;;;;;;;6.38;2.28;;;22.10;53.90;;;;;;5194880;28;20056;-62
2021/12/18 07:09:56;;;;;;;5.85;2.70;;;22.00;53.90;;;;;;5186909;28;20045;-63
2021/12/18 07:12:28;;;;;;;3.17;2.15;;;22.10;54.00;;;;;;5195388;28;20037;-63
2021/12/18 07:15:02;;;;;;;9.57;2.58;;;22.00;53.90;;;;;;5205974;28;20044;-63
2021/12/18 07:17:34;;;;;;;3.92;2.20;;;22.10;54.00;;;;;;5215244;28;20044;-63
2021/12/18 07:20:09;;;;;;;7.72;2.42;;;22.10;54.00;;;;;;5201952;28;20567;-63
2021/12/18 07:22:41;;;;;;;6.93;2.58;;;22.10;54.00;;;;;;5184364;28;20053;-63
2021/12/18 07:25:14;;;;;;;5.22;3.08;;;22.10;54.00;;;;;;5212933;28;20681;-63
2021/12/18 07:27:46;;;;;;;5.70;2.50;;;22.10;54.00;;;;;;5198295;28;20061;-63
2021/12/18 07:30:19;;;;;;;6.50;2.63;;;22.10;54.10;;;;;;5206451;28;20048;-63
2021/12/18 07:32:51;;;;;;;10.90;2.70;;;22.10;54.00;;;;;;5211745;28;20056;-63
2021/12/18 07:35:24;;;;;;;6.10;2.20;;;22.10;54.10;;;;;;5193993;28;20037;-63
2021/12/18 07:37:56;;;;;;;9.70;3.13;;;22.10;54.10;;;;;;5200176;28;20052;-63
2021/12/18 07:40:29;;;;;;;9.80;2.58;;;22.10;54.20;;;;;;5210879;28;20051;-63
2021/12/18 07:43:01;;;;;;;8.00;2.47;;;22.10;55.00;;;;;;5206530;28;20433;-64
2021/12/18 07:45:34;;;;;;;10.87;2.47;;;22.10;54.50;;;;;;5176983;28;20032;-62
2021/12/18 07:48:07;;;;;;;6.03;2.92;;;22.10;54.60;;;;;;5207876;28;20298;-62
2021/12/18 07:50:39;;;;;;;11.18;2.90;;;22.10;54.60;;;;;;5188168;28;20425;-62
2021/12/18 07:53:12;;;;;;;17.10;3.85;;;22.10;54.70;;;;;;5205333;28;20048;-62
2021/12/18 07:55:44;;;;;;;22.65;14.95;;;22.10;54.60;;;;;;5189564;28;20055;-62
2021/12/18 07:58:16;;;;;;;26.33;17.88;;;21.80;44.90;;;;;;5207948;28;20747;-62
2021/12/18 08:00:49;;;;;;;14.45;8.38;;;21.20;41.90;;;;;;5200542;28;20559;-63
2021/12/18 08:03:21;;;;;;;10.77;7.10;;;20.70;47.10;;;;;;5206962;28;20654;-62
2021/12/18 08:05:54;;;;;;;11.68;5.57;;;20.70;50.00;;;;;;5203020;28;20049;-62
2021/12/18 08:08:26;;;;;;;9.30;5.05;;;20.80;51.00;;;;;;5209751;28;20076;-62
2021/12/18 08:10:59;;;;;;;15.15;4.15;;;20.80;51.60;;;;;;5196260;28;20055;-62
2021/12/18 08:13:31;;;;;;;11.07;4.43;;;20.90;51.90;;;;;;5211177;28;20052;-62
2021/12/18 08:16:04;;;;;;;11.38;4.00;;;21.00;52.20;;;;;;5204277;28;20052;-62
2021/12/18 08:18:36;;;;;;;7.60;3.45;;;21.10;52.40;;;;;;5206892;28;21285;-61
2021/12/18 08:21:09;;;;;;;11.88;3.75;;;21.10;52.40;;;;;;5210883;28;20041;-62
2021/12/18 08:23:41;;;;;;;7.18;3.22;;;21.10;52.50;;;;;;5214492;28;20049;-62
2021/12/18 08:26:13;;;;;;;15.38;3.65;;;21.20;53.20;;;;;;5211409;28;20037;-62
2021/12/18 08:28:46;;;;;;;8.38;3.08;;;21.20;52.60;;;;;;5200183;28;20056;-63
2021/12/18 08:31:19;;;;;;;9.70;3.22;;;21.30;52.70;;;;;;5195255;28;20628;-62
2021/12/18 08:33:51;;;;;;;11.10;3.95;;;21.30;52.80;;;;;;5204790;28;20041;-63
2021/12/18 08:36:24;;;;;;;9.77;3.40;;;21.30;52.80;;;;;;5200645;28;20047;-62
2021/12/18 08:38:57;;;;;;;5.97;2.67;;;21.40;52.90;;;;;;5183625;28;20060;-63
2021/12/18 08:41:30;;;;;;;11.60;3.40;;;21.40;53.00;;;;;;5196083;28;20057;-62
2021/12/18 08:44:02;;;;;;;14.88;3.35;;;21.40;53.00;;;;;;5191914;28;20036;-62
2021/12/18 08:46:35;;;;;;;7.22;3.10;;;21.50;53.10;;;;;;5186648;28;20443;-62
2021/12/18 08:49:07;;;;;;;7.88;3.03;;;21.50;53.10;;;;;;5188643;28;20559;-63
2021/12/18 08:51:40;;;;;;;14.73;3.92;;;21.50;53.20;;;;;;5168054;28;20059;-62
2021/12/18 08:54:13;;;;;;;16.58;3.33;;;21.50;53.30;;;;;;5192437;28;20059;-63
2021/12/18 08:57:05;;;;;;;12.43;2.97;;;21.50;53.40;;;;;;5195027;28;20048;-63
2021/12/18 08:59:39;;;;;;;11.45;3.55;;;21.60;53.50;;;;;;5177642;28;20131;-63
2021/12/18 09:02:11;;;;;;;;;;;21.50;53.40;;;;;;5189437;28;20037;-63
2021/12/18 09:04:44;;;;;;;10.20;3.65;;;21.50;53.60;;;;;;5184625;28;19924;-64
2021/12/18 09:07:16;;;;;;;13.40;3.50;;;21.60;53.70;;;;;;5193088;28;20052;-63
2021/12/18 09:09:49;;;;;;;13.50;3.40;;;21.60;53.70;;;;;;5196944;28;20302;-62
2021/12/18 09:12:21;;;;;;;10.75;3.47;;;21.60;53.80;;;;;;5195782;28;20059;-57
2021/12/18 09:14:54;;;;;;;9.15;3.58;;;21.60;53.80;;;;;;5188847;28;20053;-61
2021/12/18 09:17:26;;;;;;;9.05;4.00;;;21.70;53.90;;;;;;5178653;28;20049;-63
2021/12/18 09:19:58;;;;;;;7.63;3.13;;;21.70;53.90;;;;;;5183001;28;20052;-63
2021/12/18 09:22:31;;;;;;;9.15;3.50;;;21.70;53.90;;;;;;5195766;28;20048;-62
2021/12/18 09:25:05;;;;;;;12.60;3.78;;;21.70;53.90;;;;;;5184331;28;20660;-62
2021/12/18 09:27:38;;;;;;;7.53;3.13;;;21.70;54.00;;;;;;5181374;28;20245;-62
2021/12/18 09:30:14;;;;;;;9.70;3.33;;;21.70;53.90;;;;;;5189862;28;20060;-63
2021/12/18 09:32:46;;;;;;;12.45;3.20;;;21.70;53.90;;;;;;5190786;28;20306;-62
2021/12/18 09:35:21;;;;;;;8.60;3.20;;;21.80;53.90;;;;;;5203752;28;20055;-60
2021/12/18 09:37:53;;;;;;;8.25;3.22;;;21.80;54.00;;;;;;5197249;28;20045;-61
2021/12/18 09:40:25;;;;;;;13.55;3.17;;;21.80;53.90;;;;;;5172505;28;20048;-62
2021/12/18 09:42:58;;;;;;;11.07;3.10;;;21.80;53.90;;;;;;5188883;28;20492;-61
2021/12/18 09:45:31;;;;;;;6.88;2.95;;;21.80;53.80;;;;;;5206719;28;20037;-62
2021/12/18 09:48:05;;;;;;;11.33;3.97;;;21.80;53.60;;;;;;5200308;28;20690;-61
2021/12/18 09:50:38;;;;;;;9.32;3.30;;;21.80;53.40;;;;;;5206008;28;20044;-62
2021/12/18 09:53:13;;;;;;;9.27;3.47;;;21.80;53.20;;;;;;5195275;28;20421;-63
2021/12/18 09:55:45;;;;;;;10.45;3.83;;;21.80;53.10;;;;;;5203151;28;20048;-64
2021/12/18 09:58:17;;;;;;;10.90;3.65;;;21.80;53.10;;;;;;5208367;28;20075;-65
2021/12/18 10:00:50;;;;;;;7.82;3.80;;;21.80;53.30;;;;;;5209161;28;20044;-65
2021/12/18 10:03:41;;;;;;;16.70;4.10;;;21.80;53.30;;;;;;5208901;28;20053;-62
2021/12/18 10:06:40;;;;;;;13.07;4.22;;;21.90;53.70;;;;;;5196400;28;20071;-62
2021/12/18 10:09:18;;;;;;;19.48;3.50;;;21.90;54.00;;;;;;5203034;28;20060;-63
2021/12/18 10:11:58;;;;;;;7.93;3.60;;;21.90;54.30;;;;;;5207967;28;20064;-63
2021/12/18 10:14:50;;;;;;;11.63;3.65;;;21.90;54.40;;;;;;5201743;28;20044;-63
2021/12/18 10:17:34;;;;;;;10.52;3.58;;;21.90;54.90;;;;;;5193283;28;20443;-63
2021/12/18 10:20:10;;;;;;;6.72;3.35;;;22.00;54.30;;;;;;5207912;28;20567;-65
2021/12/18 10:22:44;;;;;;;8.95;3.25;;;22.00;54.00;;;;;;5200601;28;20064;-63
2021/12/18 10:25:29;;;;;;;9.65;3.50;;;22.00;54.60;;;;;;5201497;28;20049;-63
2021/12/18 10:28:21;;;;;;;6.63;3.22;;;22.00;54.20;;;;;;5185635;28;20063;-63
2021/12/18 10:30:56;;;;;;;6.63;2.92;;;22.00;53.80;;;;;;5183860;28;20045;-63
2021/12/18 10:33:31;;;;;;;9.65;2.92;;;22.00;53.70;;;;;;5178592;28;21541;-65
2021/12/18 10:36:04;;;;;;;8.57;3.50;;;22.00;53.70;;;;;;5185237;28;20078;-65
2021/12/18 10:38:42;;;;;;;8.00;3.25;;;22.10;53.70;;;;;;5187691;28;21193;-65
2021/12/18 10:41:22;;;;;;;8.15;3.40;;;22.10;53.50;;;;;;5188183;28;20493;-65
2021/12/18 10:44:07;;;;;;;7.88;3.03;;;22.10;53.40;;;;;;5203973;28;22319;-59
2021/12/18 10:46:45;;;;;;;10.02;3.90;;;22.00;53.20;;;;;;5205186;28;20040;-68
2021/12/18 10:49:18;;;;;;;12.80;3.78;;;22.00;54.40;;;;;;5222993;28;20411;-72
2021/12/18 10:51:57;;;;;;;4.82;2.83;;;22.10;54.40;;;;;;5208843;28;20427;-64
2021/12/18 10:54:35;;;;;;;;;;;22.10;54.00;;;;;;5216963;28;20416;-67
2021/12/18 10:57:20;;;;;;;41.05;4.88;;;22.00;53.40;;;;;;5179775;28;21340;-67
2021/12/18 10:59:57;;;;;;;10.60;3.30;;;22.10;54.00;;;;;;5185793;28;20381;-67
2021/12/18 11:02:29;;;;;;;7.50;3.35;;;22.10;54.10;;;;;;5166854;28;20056;-68
2021/12/18 11:05:17;;;;;;;9.48;3.15;;;22.10;53.70;;;;;;5184372;28;20037;-65
2021/12/18 11:08:11;;;;;;;10.93;3.50;;;22.10;53.60;;;;;;5195232;28;20385;-65
2021/12/18 11:10:54;;;;;;;15.02;3.35;;;22.10;53.50;;;;;;5201126;28;20448;-65
2021/12/18 11:13:41;;;;;;;14.45;3.13;;;22.20;53.80;;;;;;5202865;28;20049;-65
2021/12/18 11:16:13;;;;;;;17.70;3.78;;;22.10;54.40;;;;;;5198986;28;20057;-66
2021/12/18 11:18:47;;;;;;;12.15;3.20;;;22.20;54.90;;;;;;5208386;28;21231;-67
2021/12/18 11:21:19;;;;;;;;;;;22.20;55.00;;;;;;5200322;28;20072;-61
2021/12/18 11:24:04;;;;;;;9.02;3.53;;;22.20;54.40;;;;;;5210084;28;19931;-63
2021/12/18 11:26:44;;;;;;;10.10;3.00;;;22.20;54.30;;;;;;5218655;28;20741;-67
2021/12/18 11:29:44;;;;;;;10.90;3.72;;;22.20;54.60;;;;;;5206737;28;20123;-64
2021/12/18 11:32:20;;;;;;;8.15;3.00;;;22.20;54.50;;;;;;5211331;28;20032;-63
2021/12/18 11:34:54;;;;;;;12.25;3.58;;;22.30;54.30;;;;;;5215261;28;21647;-63
2021/12/18 11:37:33;;;;;;;15.82;3.10;;;22.30;54.20;;;;;;5212834;28;20059;-61
2021/12/18 11:40:06;;;;;;;8.98;3.22;;;22.30;54.20;;;;;;5203566;28;20056;-62
2021/12/18 11:42:39;;;;;;;4.43;2.75;;;22.30;54.00;;;;;;5213504;28;20052;-61
2021/12/18 11:45:12;;;;;;;9.13;3.10;;;22.40;53.90;;;;;;5206314;28;20059;-62
2021/12/18 11:48:00;;;;;;;15.75;4.03;;;22.30;53.90;;;;;;5210363;28;20074;-66
2021/12/18 11:50:38;;;;;;;12.13;3.03;;;22.30;54.00;;;;;;5205134;28;20331;-66
2021/12/18 11:53:13;;;;;;;8.30;3.08;;;22.30;54.10;;;;;;5215572;28;20041;-66
2021/12/18 11:55:49;;;;;;;8.70;3.58;;;22.40;54.10;;;;;;5198839;28;20409;-64
2021/12/18 11:58:26;;;;;;;7.13;2.58;;;22.40;54.10;;;;;;5199335;28;20083;-63
2021/12/18 12:01:03;;;;;;;10.23;3.10;;;22.40;54.00;;;;;;5188037;28;20646;-63
2021/12/18 12:03:40;;;;;;;6.38;3.17;;;22.40;54.10;;;;;;5200370;28;20528;-63
2021/12/18 12:06:35;;;;;;;8.77;2.97;;;22.40;54.00;;;;;;5184572;28;20045;-63
2021/12/18 12:12:09;;;;;;;7.55;2.80;;;22.40;53.80;;;;;;5200483;28;20052;-63
2021/12/18 12:14:44;;;;;;;9.93;3.40;;;22.40;53.90;;;;;;5196585;28;20048;-63
2021/12/18 12:17:27;;;;;;;7.55;2.58;;;22.40;53.80;;;;;;5169250;28;20056;-64
2021/12/18 12:20:05;;;;;;;6.50;3.17;;;22.40;53.60;;;;;;5191158;28;20041;-63
2021/12/18 12:22:42;;;;;;;13.65;3.40;;;22.40;53.50;;;;;;5189298;28;20052;-62
2021/12/18 12:25:18;;;;;;;10.88;3.28;;;22.40;53.50;;;;;;5211941;28;20044;-63
2021/12/18 12:28:06;;;;;;;12.77;2.95;;;22.40;53.50;;;;;;5202067;28;20045;-65
2021/12/18 12:30:49;;;;;;;9.02;3.25;;;22.40;53.40;;;;;;5201707;28;20053;-65
2021/12/18 12:33:29;;;;;;;12.07;3.00;;;22.40;53.50;;;;;;5201140;28;20407;-67
2021/12/18 12:36:23;;;;;;;13.23;3.45;;;22.40;53.60;;;;;;5213615;28;20040;-64
2021/12/18 12:38:59;;;;;;;9.68;3.75;;;22.40;53.70;;;;;;5195944;28;20048;-67
2021/12/18 12:41:34;;;;;;;9.20;3.30;;;22.40;54.00;;;;;;5142571;28;20045;-65
2021/12/18 12:44:32;;;;;;;9.13;3.45;;;22.50;54.30;;;;;;5092771;28;20050;-65
2021/12/18 12:47:16;;;;;;;12.65;3.03;;;22.50;53.70;;;;;;5099146;28;20054;-65
2021/12/18 12:49:57;;;;;;;10.73;3.13;;;22.50;53.50;;;;;;5106468;28;20054;-64
2021/12/18 12:52:30;;;;;;;8.32;3.72;;;22.50;53.40;;;;;;5112285;28;20061;-64
2021/12/18 12:55:06;;;;;;;8.45;3.85;;;22.50;53.30;;;;;;5118508;28;20046;-65
2021/12/18 12:57:44;;;;;;;7.43;3.20;;;22.50;53.30;;;;;;5108132;28;20050;-65
2021/12/18 13:00:25;;;;;;;7.25;2.92;;;22.50;53.10;;;;;;5113786;28;20049;-65
2021/12/18 13:03:00;;;;;;;9.82;3.53;;;22.50;53.10;;;;;;5125053;28;20506;-65
2021/12/18 13:05:46;;;;;;;6.50;2.67;;;22.50;53.00;;;;;;5126539;28;20050;-65
2021/12/18 13:08:20;;;;;;;8.18;3.28;;;22.50;52.90;;;;;;5131196;28;20057;-65
2021/12/18 13:10:54;;;;;;;7.63;3.00;;;22.50;52.80;;;;;;5137660;28;20038;-65
2021/12/18 13:13:30;;;;;;;8.27;3.40;;;22.50;52.70;;;;;;5125595;28;20057;-64
2021/12/18 13:16:14;;;;;;;11.05;3.20;;;22.50;52.50;;;;;;5092388;28;20354;-63
2021/12/18 13:18:50;;;;;;;8.95;3.28;;;22.50;52.50;;;;;;5122068;28;20054;-62
2021/12/18 13:21:25;;;;;;;16.10;3.45;;;22.50;52.70;;;;;;5128785;28;20971;-61
2021/12/18 13:24:06;;;;;;;9.63;3.40;;;22.50;52.80;;;;;;5135945;28;20061;-63
2021/12/18 13:26:45;;;;;;;12.73;3.28;;;22.50;53.50;;;;;;5130391;28;20038;-64
2021/12/18 13:29:21;;;;;;;13.68;3.42;;;22.50;53.00;;;;;;5118074;28;20433;-68
2021/12/18 13:31:58;;;;;;;11.30;3.45;;;22.50;53.10;;;;;;5131451;28;20425;-63
2021/12/18 13:34:36;;;;;;;11.85;3.45;;;22.50;53.20;;;;;;5120671;28;20057;-63
2021/12/18 13:37:11;;;;;;;16.35;3.45;;;22.50;53.20;;;;;;5126281;28;20065;-63
2021/12/18 13:39:46;;;;;;;13.27;3.78;;;22.50;53.30;;;;;;5124520;28;20090;-66
2021/12/18 13:42:22;;;;;;;12.05;3.28;;;22.50;53.30;;;;;;5126968;28;21797;-67
2021/12/18 13:44:57;;;;;;;8.18;3.08;;;22.60;53.50;;;;;;5128236;28;20057;-63
2021/12/18 13:47:47;;;;;;;8.90;3.05;;;22.60;53.40;;;;;;5100663;28;20616;-62
2021/12/18 13:50:22;;;;;;;11.27;3.17;;;22.60;53.50;;;;;;5124002;28;20430;-60
2021/12/18 13:52:58;;;;;;;8.52;3.70;;;22.70;53.60;;;;;;5125551;28;20053;-60
2021/12/18 13:55:47;;;;;;;9.38;2.65;;;22.60;53.60;;;;;;5126870;28;20058;-60
2021/12/18 13:58:22;;;;;;;8.10;2.92;;;22.70;53.40;;;;;;5119670;28;20425;-63
2021/12/18 14:01:01;;;;;;;11.27;3.22;;;22.60;53.40;;;;;;5131835;28;20050;-60
2021/12/18 14:03:33;;;;;;;8.45;3.20;;;22.70;53.40;;;;;;5133842;28;20050;-64
2021/12/18 14:06:23;;;;;;;9.23;3.03;;;22.70;53.30;;;;;;5117169;28;20045;-60
2021/12/18 14:09:03;;;;;;;13.77;3.35;;;22.70;53.30;;;;;;5130093;28;20070;-58
2021/12/18 14:11:45;;;;;;;13.48;4.43;;;22.70;53.20;;;;;;5124323;28;20584;-60
2021/12/18 14:14:30;;;;;;;9.50;3.30;;;22.70;53.10;;;;;;5124512;28;20055;-58